Time;durP1;ratioP1;P1;durP2;ratioP2;P2;SDS_P1;SDS_P2;PMS_P1;PMS_P2;Temp;Humidity;BMP_temperature;BMP_pressure;BME280_temperature;BME280_humidity;BME280_pressure;Samples;Min_cycle;Max_cycle;Signal;HPM_P1;HPM_P2
2022/09/21 00:00:36;;;;;;;6.30;3.50;;;;;;;13.56;70.84;102526.22;4996740;28;20088;-85
2022/09/21 00:03:02;;;;;;;8.73;3.55;;;;;;;13.62;70.65;102521.09;4981301;28;20386;-85
2022/09/21 00:05:28;;;;;;;7.57;3.40;;;;;;;13.67;70.09;102527.41;4997306;28;20045;-84
2022/09/21 00:07:53;;;;;;;6.38;3.55;;;;;;;13.63;70.11;102522.88;5014824;28;20042;-85
2022/09/21 00:10:20;;;;;;;7.88;3.50;;;;;;;13.61;69.93;102527.25;4996711;28;20478;-84
2022/09/21 00:12:47;;;;;;;6.88;3.58;;;;;;;13.65;69.85;102528.22;5014183;28;20072;-84
2022/09/21 00:15:16;;;;;;;8.30;3.80;;;;;;;13.54;69.73;102525.31;5014313;28;20029;-86
2022/09/21 00:17:42;;;;;;;7.75;3.60;;;;;;;13.43;70.39;102511.75;5014426;28;20038;-85
2022/09/21 00:20:09;;;;;;;5.53;3.45;;;;;;;13.25;71.11;102516.59;5014428;28;20036;-85
2022/09/21 00:22:35;;;;;;;6.78;3.47;;;;;;;13.10;71.58;102521.44;5013787;28;20069;-85
2022/09/21 00:25:02;;;;;;;7.22;3.53;;;;;;;13.05;71.61;102518.66;4996147;28;20081;-85
2022/09/21 00:27:31;;;;;;;7.97;3.80;;;;;;;13.02;71.47;102521.25;5013975;28;20038;-85
2022/09/21 00:30:02;;;;;;;6.20;3.60;;;;;;;12.93;71.92;102519.25;4996887;28;20037;-85
2022/09/21 00:32:30;;;;;;;6.93;3.60;;;;;;;12.77;72.24;102525.84;5014328;28;20068;-85
2022/09/21 00:34:56;;;;;;;6.60;3.78;;;;;;;12.61;72.71;102515.66;4996177;28;20025;-85
2022/09/21 00:37:23;;;;;;;7.55;3.47;;;;;;;12.61;72.84;102522.72;5013935;28;20068;-85
2022/09/21 00:39:48;;;;;;;9.10;3.65;;;;;;;12.58;73.53;102530.56;5013888;28;20037;-84
2022/09/21 00:42:18;;;;;;;6.65;3.55;;;;;;;12.63;73.15;102527.19;4980453;28;20030;-85
2022/09/21 00:44:44;;;;;;;7.75;3.50;;;;;;;12.62;73.02;102533.34;5014402;28;20065;-85
2022/09/21 00:47:13;;;;;;;7.28;3.70;;;;;;;12.54;73.07;102526.91;5013910;28;20395;-86
2022/09/21 00:49:44;;;;;;;9.40;3.72;;;;;;;12.53;72.95;102523.38;4996201;28;20053;-85
2022/09/21 00:52:13;;;;;;;8.15;3.75;;;;;;;12.55;73.44;102528.75;5014138;28;20379;-85
2022/09/21 00:55:02;;;;;;;7.55;3.65;;;;;;;12.63;73.00;102531.59;4996384;28;20040;-84
2022/09/21 00:57:30;;;;;;;8.60;3.45;;;;;;;12.45;73.51;102522.25;5013773;28;20029;-84
2022/09/21 01:00:00;;;;;;;7.93;3.55;;;;;;;12.41;73.60;102524.75;5013886;28;20080;-84
2022/09/21 01:02:26;;;;;;;6.78;3.72;;;;;;;12.48;73.60;102537.34;4996092;28;20029;-84
2022/09/21 01:04:53;;;;;;;9.75;3.80;;;;;;;12.45;73.42;102529.31;5013679;28;20246;-84
2022/09/21 01:07:23;;;;;;;7.43;3.80;;;;;;;12.49;73.89;102529.44;5013650;28;20116;-84
2022/09/21 01:09:52;;;;;;;6.32;3.83;;;;;;;12.39;74.07;102524.72;5013411;28;20053;-84
2022/09/21 01:12:39;;;;;;;8.80;3.88;;;;;;;12.48;73.50;102527.66;5013572;28;20041;-84
2022/09/21 01:15:05;;;;;;;7.90;4.05;;;;;;;12.46;73.83;102532.03;5013508;28;20477;-84
2022/09/21 01:18:12;;;;;;;8.80;3.80;;;;;;;12.51;73.27;102526.84;4996998;28;20121;-84
2022/09/21 01:21:13;;;;;;;10.15;3.95;;;;;;;12.60;73.23;102524.47;5015789;28;20045;-84
2022/09/21 01:23:44;;;;;;;6.22;3.78;;;;;;;12.66;72.97;102527.28;5000178;28;20203;-84
2022/09/21 01:26:55;;;;;;;6.50;3.93;;;;;;;12.69;72.41;102535.34;4999640;28;20129;-84
2022/09/21 01:29:39;;;;;;;6.78;3.85;;;;;;;12.62;72.70;102535.09;4994240;28;20617;-84
2022/09/21 01:32:21;;;;;;;8.63;4.13;;;;;;;12.56;73.11;102538.50;4999756;28;20462;-84
2022/09/21 01:34:54;;;;;;;6.45;3.97;;;;;;;12.47;72.97;102535.56;4999360;28;20026;-84
2022/09/21 01:37:28;;;;;;;8.10;3.80;;;;;;;12.42;73.30;102534.50;5016983;28;20026;-84
2022/09/21 01:39:58;;;;;;;11.18;3.70;;;;;;;12.43;73.04;102538.97;5017074;28;20025;-84
2022/09/21 01:42:26;;;;;;;7.97;4.22;;;;;;;12.44;73.38;102533.72;5016654;28;20030;-84
2022/09/21 01:44:54;;;;;;;5.45;3.85;;;;;;;12.42;73.67;102535.44;5017091;28;20454;-84
2022/09/21 01:47:21;;;;;;;10.43;3.80;;;;;;;12.42;73.52;102529.19;4999257;28;20034;-84
2022/09/21 01:49:54;;;;;;;12.35;4.43;;;;;;;12.38;73.55;102533.53;4999714;28;20026;-85
2022/09/21 01:52:31;;;;;;;7.32;4.25;;;;;;;12.36;73.89;102531.69;5016858;28;20402;-85
2022/09/21 01:55:04;;;;;;;11.82;3.95;;;;;;;12.31;73.72;102536.84;5016377;28;20104;-84
2022/09/21 01:57:48;;;;;;;6.80;3.92;;;;;;;12.34;73.69;102544.91;4999616;28;20029;-84
2022/09/21 02:00:15;;;;;;;7.53;4.90;;;;;;;12.32;73.71;102535.09;5016629;28;20026;-84
2022/09/21 02:02:47;;;;;;;7.95;3.70;;;;;;;12.31;73.45;102525.34;5016780;28;20352;-84
2022/09/21 02:05:15;;;;;;;;;;;;;;;12.51;71.78;102533.06;5017518;28;20036;-85
2022/09/21 02:07:41;;;;;;;5.88;3.85;;;;;;;12.37;72.83;102538.78;4999119;28;19909;-84
2022/09/21 02:10:12;;;;;;;8.73;4.15;;;;;;;12.20;73.35;102530.31;5016112;28;20034;-84
2022/09/21 02:12:39;;;;;;;17.17;4.03;;;;;;;12.13;73.93;102526.56;5016192;28;20486;-84
2022/09/21 02:15:05;;;;;;;8.38;4.30;;;;;;;12.11;74.58;102530.03;4998732;28;20038;-84
2022/09/21 02:18:05;;;;;;;9.13;4.00;;;;;;;12.21;73.88;102526.81;5015999;28;20029;-84
2022/09/21 02:20:40;;;;;;;8.57;4.30;;;;;;;12.31;73.80;102534.19;5016260;28;20068;-84
2022/09/21 02:23:15;;;;;;;7.00;3.90;;;;;;;12.34;73.40;102533.41;5016208;28;20458;-85
2022/09/21 02:25:52;;;;;;;7.15;3.72;;;;;;;12.32;72.99;102527.13;5016614;28;20050;-84
2022/09/21 02:28:48;;;;;;;7.72;3.70;;;;;;;12.29;72.89;102533.25;5016341;28;20095;-84
2022/09/21 02:31:20;;;;;;;6.05;3.80;;;;;;;12.07;73.00;102531.66;5015819;28;20030;-85
2022/09/21 02:33:58;;;;;;;10.93;3.70;;;;;;;11.95;73.99;102526.91;5016306;28;20032;-85
2022/09/21 02:37:14;;;;;;;8.63;3.80;;;;;;;11.97;73.52;102525.19;5016473;28;20022;-84
2022/09/21 02:39:54;;;;;;;5.20;3.60;;;;;;;11.96;73.22;102527.78;5015226;28;20092;-85
2022/09/21 02:42:30;;;;;;;7.82;3.78;;;;;;;11.89;73.16;102531.97;4982689;28;20029;-84
2022/09/21 02:45:06;;;;;;;8.20;3.75;;;;;;;11.82;73.57;102526.41;5015653;28;20498;-85
2022/09/21 02:48:00;;;;;;;9.90;4.20;;;;;;;11.75;74.28;102531.50;5015315;28;20184;-84
2022/09/21 02:50:34;;;;;;;6.30;3.55;;;;;;;11.71;74.45;102528.72;4975288;28;20394;-84
2022/09/21 02:53:03;;;;;;;7.63;3.72;;;;;;;11.73;73.18;102530.56;5015879;28;20084;-84
2022/09/21 02:55:30;;;;;;;4.75;3.50;;;;;;;11.80;72.70;102529.00;5015429;28;20083;-84
2022/09/21 02:57:56;;;;;;;6.25;3.60;;;;;;;11.78;72.06;102534.25;4981729;28;20073;-85
2022/09/21 03:00:22;;;;;;;5.32;3.80;;;;;;;11.74;72.08;102528.81;4998087;28;20042;-85
2022/09/21 03:02:47;;;;;;;12.13;3.70;;;;;;;11.67;72.07;102526.81;4998176;28;20041;-85
2022/09/21 03:05:13;;;;;;;4.63;3.40;;;;;;;11.66;72.97;102519.72;5015626;28;20061;-85
2022/09/21 03:07:39;;;;;;;5.45;3.13;;;;;;;11.48;72.54;102531.50;5015610;28;20038;-85
2022/09/21 03:10:08;;;;;;;5.63;3.05;;;;;;;11.36;73.57;102532.81;5014963;28;20054;-85
2022/09/21 03:12:33;;;;;;;4.82;3.60;;;;;;;11.23;73.69;102526.19;4998445;28;20037;-85
2022/09/21 03:14:59;;;;;;;6.25;3.38;;;;;;;11.26;73.41;102534.22;5015098;28;20033;-85
2022/09/21 03:17:25;;;;;;;6.90;3.35;;;;;;;11.28;73.67;102532.53;4997689;28;20088;-84
2022/09/21 03:19:53;;;;;;;4.43;3.20;;;;;;;11.43;72.56;102532.16;5014735;28;20037;-84
2022/09/21 03:22:20;;;;;;;5.28;3.42;;;;;;;11.48;73.19;102541.19;4997944;28;20034;-84
2022/09/21 03:24:45;;;;;;;5.65;3.33;;;;;;;11.51;72.90;102543.91;4997095;28;20502;-85
2022/09/21 03:27:13;;;;;;;6.75;3.10;;;;;;;11.55;73.09;102537.88;5014945;28;20038;-84
2022/09/21 03:29:39;;;;;;;4.90;3.20;;;;;;;11.51;72.35;102536.88;5014948;28;20056;-85
2022/09/21 03:32:05;;;;;;;4.78;2.90;;;;;;;11.43;72.25;102543.66;4997456;28;20466;-85
2022/09/21 03:34:32;;;;;;;9.98;3.38;;;;;;;11.31;72.40;102542.34;5015047;28;20117;-84
2022/09/21 03:36:59;;;;;;;6.05;3.40;;;;;;;11.29;72.33;102539.63;5015122;28;20088;-84
2022/09/21 03:39:24;;;;;;;6.85;3.30;;;;;;;11.26;72.75;102543.09;5014615;28;20069;-84
2022/09/21 03:41:49;;;;;;;5.63;3.03;;;;;;;11.33;72.83;102543.28;5014312;28;20430;-85
2022/09/21 03:44:16;;;;;;;6.53;3.25;;;;;;;11.40;72.66;102545.31;4997223;28;20037;-84
2022/09/21 03:46:42;;;;;;;6.85;3.22;;;;;;;11.37;71.86;102543.44;4997829;28;20076;-84
2022/09/21 03:49:07;;;;;;;7.30;3.30;;;;;;;11.34;71.45;102550.38;4964796;28;20041;-85
2022/09/21 03:51:32;;;;;;;4.50;2.88;;;;;;;11.20;71.21;102545.50;5014313;28;20029;-84
2022/09/21 03:53:58;;;;;;;4.85;3.03;;;;;;;11.14;72.24;102555.00;5014406;28;20030;-85
2022/09/21 03:56:23;;;;;;;5.40;3.10;;;;;;;11.08;72.44;102555.63;5014192;28;20371;-84
2022/09/21 03:58:49;;;;;;;5.75;3.00;;;;;;;11.04;72.54;102554.63;5014374;28;20091;-84
2022/09/21 04:01:14;;;;;;;4.38;3.00;;;;;;;10.94;71.89;102544.56;5014681;28;20386;-84
2022/09/21 04:03:40;;;;;;;4.13;2.83;;;;;;;10.98;71.84;102546.47;4981265;28;20038;-84
2022/09/21 04:06:08;;;;;;;5.18;2.80;;;;;;;10.93;71.95;102549.81;4996562;28;20044;-84
2022/09/21 04:08:34;;;;;;;4.13;3.00;;;;;;;10.90;72.08;102552.34;4996624;28;20030;-85
2022/09/21 04:10:59;;;;;;;4.90;2.97;;;;;;;10.84;72.16;102553.03;4996620;28;20040;-84
2022/09/21 04:13:24;;;;;;;5.38;2.90;;;;;;;10.78;72.75;102542.19;5013950;28;20030;-85
2022/09/21 04:15:50;;;;;;;4.15;3.15;;;;;;;10.71;72.46;102545.47;5014156;28;20514;-84
2022/09/21 04:18:15;;;;;;;4.47;2.70;;;;;;;10.70;73.16;102554.22;5014139;28;20038;-84
2022/09/21 04:20:41;;;;;;;3.97;2.80;;;;;;;10.62;73.40;102553.03;5014168;28;20459;-84
2022/09/21 04:23:07;;;;;;;4.40;2.67;;;;;;;10.55;74.01;102554.56;5014158;28;20426;-84
2022/09/21 04:25:32;;;;;;;4.55;2.85;;;;;;;10.52;74.02;102554.44;5013933;28;20087;-85
2022/09/21 04:27:58;;;;;;;5.82;2.60;;;;;;;10.56;73.96;102556.34;5014339;28;20066;-85
2022/09/21 04:30:23;;;;;;;3.78;2.53;;;;;;;10.57;73.77;102559.91;4996402;28;20504;-85
2022/09/21 04:32:49;;;;;;;3.92;2.50;;;;;;;10.55;74.11;102561.59;5013577;28;20036;-85
2022/09/21 04:35:14;;;;;;;3.40;2.63;;;;;;;10.53;73.92;102556.22;5014366;28;20034;-85
2022/09/21 04:37:40;;;;;;;3.25;2.60;;;;;;;10.48;73.25;102556.06;5014465;28;20034;-85
2022/09/21 04:40:06;;;;;;;5.95;2.67;;;;;;;10.39;74.05;102553.06;5014373;28;20374;-84
2022/09/21 04:42:32;;;;;;;4.72;2.70;;;;;;;10.37;73.66;102559.16;5013749;28;20463;-85
2022/09/21 04:44:57;;;;;;;4.43;2.90;;;;;;;10.43;73.38;102565.56;4996160;28;20043;-85
2022/09/21 04:47:24;;;;;;;6.00;2.88;;;;;;;10.39;73.72;102562.72;4996319;28;20034;-85
2022/09/21 04:49:51;;;;;;;7.28;2.78;;;;;;;10.27;73.65;102557.88;4996688;28;20121;-85
2022/09/21 04:52:16;;;;;;;3.60;2.60;;;;;;;10.35;73.92;102566.09;4997407;28;20455;-85
2022/09/21 04:54:41;;;;;;;4.93;2.80;;;;;;;10.29;73.56;102556.19;5017678;28;20037;-85
2022/09/21 04:57:07;;;;;;;4.15;2.60;;;;;;;10.29;73.21;102558.84;5017462;28;20519;-85
2022/09/21 04:59:32;;;;;;;3.65;2.72;;;;;;;10.27;73.55;102565.78;5018228;28;20069;-85
2022/09/21 05:01:57;;;;;;;4.30;2.80;;;;;;;10.22;73.50;102578.78;5000118;28;20041;-85
2022/09/21 05:04:23;;;;;;;5.43;2.90;;;;;;;10.16;73.95;102575.00;5017848;28;20037;-84
2022/09/21 05:06:48;;;;;;;4.00;2.80;;;;;;;10.08;74.19;102558.84;5017298;28;20038;-85
2022/09/21 05:11:57;;;;;;;4.65;3.17;;;;;;;10.15;74.88;102574.13;5017775;28;20197;-86
2022/09/21 05:14:23;;;;;;;4.47;3.10;;;;;;;10.15;73.78;102571.47;4999585;28;20057;-85
2022/09/21 05:16:48;;;;;;;7.28;3.10;;;;;;;10.14;73.22;102563.47;4983503;28;20470;-86
2022/09/21 05:19:14;;;;;;;3.90;3.00;;;;;;;10.25;72.96;102580.69;5000488;28;20033;-85
2022/09/21 05:21:40;;;;;;;4.35;2.85;;;;;;;10.27;72.94;102581.63;4999883;28;20034;-84
2022/09/21 05:24:05;;;;;;;5.88;3.22;;;;;;;10.30;73.13;102573.84;5016771;28;20068;-86
2022/09/21 05:26:31;;;;;;;6.63;2.85;;;;;;;10.29;72.40;102572.06;4998569;28;20466;-85
2022/09/21 05:28:56;;;;;;;4.03;2.90;;;;;;;10.28;72.12;102584.38;4966410;28;20168;-86
2022/09/21 05:31:59;;;;;;;4.78;3.00;;;;;;;10.30;72.14;102586.16;4998681;28;20387;-86
2022/09/21 05:34:33;;;;;;;6.40;3.08;;;;;;;10.24;72.19;102592.06;4998260;28;20030;-86
2022/09/21 05:37:16;;;;;;;4.93;2.80;;;;;;;10.21;72.22;102589.31;5016084;28;20042;-86
2022/09/21 05:39:42;;;;;;;4.70;2.83;;;;;;;10.19;72.60;102591.91;4998146;28;20060;-87
2022/09/21 05:42:09;;;;;;;3.63;2.75;;;;;;;10.16;72.43;102590.88;5015495;28;20046;-86
2022/09/21 05:44:35;;;;;;;5.95;2.90;;;;;;;10.20;71.94;102590.16;5015708;28;20108;-86
2022/09/21 05:47:09;;;;;;;5.85;3.15;;;;;;;10.15;72.36;102596.97;4998217;28;20454;-86
2022/09/21 05:50:02;;;;;;;5.05;3.20;;;;;;;10.21;72.31;102598.13;4998325;28;20430;-85
2022/09/21 05:52:52;;;;;;;3.35;2.60;;;;;;;10.24;72.49;102597.34;5015693;28;20026;-86
2022/09/21 05:55:45;;;;;;;6.93;2.70;;;;;;;10.33;72.39;102602.16;4998536;28;20030;-86
2022/09/21 05:58:16;;;;;;;3.78;2.78;;;;;;;10.40;72.51;102602.44;5016010;28;20061;-86
2022/09/21 06:00:59;;;;;;;3.40;2.80;;;;;;;10.57;72.70;102608.38;5015439;28;20103;-86
2022/09/21 06:03:34;;;;;;;4.03;2.80;;;;;;;10.75;72.23;102617.03;5014938;28;20113;-86
2022/09/21 06:06:01;;;;;;;7.93;3.15;;;;;;;10.92;71.79;102622.03;4997964;28;20066;-86
2022/09/21 06:08:26;;;;;;;5.93;3.30;;;;;;;10.97;71.13;102613.47;5015060;28;20038;-86
2022/09/21 06:10:53;;;;;;;5.00;3.28;;;;;;;11.04;71.72;102615.47;4997912;28;20092;-85
2022/09/21 06:13:19;;;;;;;4.28;2.97;;;;;;;11.07;71.55;102622.63;4997699;28;20038;-86
2022/09/21 06:15:44;;;;;;;6.30;3.08;;;;;;;11.17;71.29;102627.41;4997552;28;20034;-86
2022/09/21 06:18:10;;;;;;;4.22;2.90;;;;;;;11.29;71.69;102613.72;4997684;28;20038;-86
2022/09/21 06:20:35;;;;;;;4.75;3.00;;;;;;;11.54;71.13;102629.66;5015156;28;20108;-86
2022/09/21 06:23:06;;;;;;;6.05;3.47;;;;;;;11.72;70.79;102617.91;4997933;28;20042;-86
2022/09/21 06:25:31;;;;;;;5.70;3.67;;;;;;;11.97;71.02;102619.66;4959881;28;1104021;-86
2022/09/21 06:28:11;;;;;;;5.90;4.05;;;;;;;12.18;70.45;102617.72;4998632;28;20042;-86
2022/09/21 06:30:38;;;;;;;8.32;4.72;;;;;;;12.43;70.41;102622.06;4999962;28;20041;-86
2022/09/21 06:33:05;;;;;;;18.15;4.60;;;;;;;12.66;70.19;102609.50;5015989;28;20037;-86
2022/09/21 06:35:32;;;;;;;7.00;4.80;;;;;;;12.81;70.04;102608.19;5017479;28;20030;-86
2022/09/21 06:38:03;;;;;;;9.85;6.10;;;;;;;12.93;69.63;102613.81;5018002;28;20057;-86
2022/09/21 06:40:29;;;;;;;11.25;6.22;;;;;;;13.13;69.45;102617.97;5017156;28;20065;-86
2022/09/21 06:42:57;;;;;;;10.38;6.45;;;;;;;13.25;69.48;102606.84;4998720;28;20116;-86
2022/09/21 06:45:22;;;;;;;11.98;6.20;;;;;;;13.49;69.25;102612.84;5015771;28;20041;-85
2022/09/21 06:47:47;;;;;;;10.93;6.25;;;;;;;13.69;69.36;102618.66;5015811;28;20030;-85
2022/09/21 06:50:13;;;;;;;12.30;5.95;;;;;;;13.82;68.86;102611.00;4998084;28;20034;-86
2022/09/21 06:52:39;;;;;;;10.50;5.75;;;;;;;13.91;68.53;102619.22;4997884;28;20042;-86
2022/09/21 06:55:05;;;;;;;11.23;5.45;;;;;;;14.04;68.33;102616.91;5015738;28;20034;-85
2022/09/21 06:57:31;;;;;;;11.80;6.18;;;;;;;14.22;68.20;102615.56;4998022;28;20030;-86
2022/09/21 06:59:56;;;;;;;8.88;5.18;;;;;;;14.35;67.34;102611.44;5014967;28;20088;-85
2022/09/21 07:02:24;;;;;;;10.45;5.50;;;;;;;14.51;66.63;102610.94;5015654;28;20088;-86
2022/09/21 07:04:49;;;;;;;12.68;5.05;;;;;;;14.59;66.37;102604.03;4982397;28;20482;-85
2022/09/21 07:07:15;;;;;;;13.32;5.07;;;;;;;14.80;65.50;102619.59;4997823;28;20037;-86
2022/09/21 07:09:40;;;;;;;7.43;4.90;;;;;;;14.89;65.56;102625.09;4998088;28;20038;-86
2022/09/21 07:12:06;;;;;;;8.38;5.10;;;;;;;15.08;65.63;102631.72;4997715;28;20030;-86
2022/09/21 07:14:32;;;;;;;8.93;5.38;;;;;;;15.15;65.25;102622.09;5015228;28;20121;-86
2022/09/21 07:16:58;;;;;;;10.05;5.15;;;;;;;15.32;64.50;102625.97;4997354;28;20121;-86
2022/09/21 07:19:24;;;;;;;9.30;5.15;;;;;;;15.50;63.75;102613.03;4997675;28;20032;-86
2022/09/21 07:21:51;;;;;;;11.30;5.53;;;;;;;15.60;62.78;102616.78;4997527;28;20179;-85
2022/09/21 07:24:17;;;;;;;7.70;5.45;;;;;;;15.68;62.50;102616.94;4997264;28;20050;-85
2022/09/21 07:26:42;;;;;;;10.13;5.10;;;;;;;15.89;62.79;102622.66;4997187;28;20172;-85
2022/09/21 07:29:08;;;;;;;12.50;5.50;;;;;;;16.15;62.70;102617.75;5014905;28;20037;-85
2022/09/21 07:31:33;;;;;;;8.45;4.65;;;;;;;16.37;62.07;102616.31;4981461;28;20508;-85
2022/09/21 07:33:59;;;;;;;7.60;4.65;;;;;;;16.47;61.10;102618.22;4981221;28;20041;-85
2022/09/21 07:36:25;;;;;;;8.43;4.35;;;;;;;16.42;60.42;102608.38;5014459;28;20038;-85
2022/09/21 07:38:52;;;;;;;9.00;4.43;;;;;;;16.66;60.27;102621.16;4997301;28;20462;-85
2022/09/21 07:41:17;;;;;;;7.72;4.15;;;;;;;16.85;59.84;102614.34;4997325;28;20382;-85
2022/09/21 07:43:43;;;;;;;8.32;4.38;;;;;;;17.09;58.78;102614.66;5014447;28;20102;-86
2022/09/21 07:46:13;;;;;;;9.02;3.80;;;;;;;17.39;58.33;102613.22;5015201;28;20062;-85
2022/09/21 07:48:39;;;;;;;9.65;3.70;;;;;;;17.49;56.27;102609.75;4997547;28;20032;-85
2022/09/21 07:51:10;;;;;;;10.07;3.97;;;;;;;17.78;56.38;102612.75;5014237;28;20410;-84
2022/09/21 07:53:37;;;;;;;8.70;3.50;;;;;;;18.03;54.44;102608.53;5014602;28;20025;-84
2022/09/21 07:56:05;;;;;;;6.55;3.33;;;;;;;18.33;53.53;102605.19;4996860;28;20336;-84
2022/09/21 08:01:16;;;;;;;6.32;2.90;;;;;;;18.73;52.55;102605.44;5014848;28;20048;-84
2022/09/21 08:03:41;;;;;;;10.80;3.03;;;;;;;18.91;51.73;102605.53;4997359;28;20121;-85
2022/09/21 08:06:08;;;;;;;7.47;2.90;;;;;;;19.17;51.48;102604.72;5014320;28;20450;-85
2022/09/21 08:08:34;;;;;;;10.38;3.00;;;;;;;19.33;49.02;102603.00;5014295;28;20040;-85
2022/09/21 08:11:07;;;;;;;5.63;2.90;;;;;;;19.57;50.56;102607.50;4996576;28;20029;-85
2022/09/21 08:13:32;;;;;;;9.05;3.22;;;;;;;19.68;49.80;102595.94;4996708;28;20034;-85
2022/09/21 08:15:59;;;;;;;10.27;3.03;;;;;;;19.72;50.11;102596.84;5014104;28;20351;-85
2022/09/21 08:18:24;;;;;;;9.25;3.30;;;;;;;19.96;50.05;102598.66;5014163;28;20040;-85
2022/09/21 08:20:58;;;;;;;9.35;3.10;;;;;;;20.22;49.45;102602.19;5014148;28;20038;-85
2022/09/21 08:23:25;;;;;;;5.30;2.75;;;;;;;20.43;47.37;102595.00;5014118;28;20037;-85
2022/09/21 08:25:51;;;;;;;9.82;2.80;;;;;;;20.70;46.36;102605.69;4996559;28;20110;-85
2022/09/21 08:28:17;;;;;;;5.53;2.80;;;;;;;20.94;45.88;102596.66;5013972;28;20034;-85
2022/09/21 08:30:42;;;;;;;7.18;2.65;;;;;;;21.20;45.71;102601.91;5014010;28;20038;-87
2022/09/21 08:33:08;;;;;;;6.28;2.50;;;;;;;21.49;44.50;102604.44;4996340;28;20061;-84
2022/09/21 08:35:35;;;;;;;9.30;2.70;;;;;;;21.58;43.13;102616.94;5013909;28;20482;-84
2022/09/21 08:38:00;;;;;;;7.65;2.97;;;;;;;21.50;43.25;102606.25;5014020;28;20029;-84
2022/09/21 08:40:26;;;;;;;5.28;2.40;;;;;;;21.54;43.55;102614.28;4980949;28;20109;-84
2022/09/21 08:43:09;;;;;;;6.68;2.58;;;;;;;21.65;43.56;102596.28;5013565;28;20458;-84
2022/09/21 08:45:41;;;;;;;5.88;2.60;;;;;;;21.66;43.49;102603.44;5013866;28;20512;-84
2022/09/21 08:48:39;;;;;;;6.40;2.38;;;;;;;21.89;44.69;102608.66;4996599;28;20026;-84
2022/09/21 08:51:10;;;;;;;6.70;2.60;;;;;;;21.90;42.66;102596.97;4995711;28;20191;-84
2022/09/21 08:53:43;;;;;;;6.43;2.70;;;;;;;22.19;42.61;102608.41;5013857;28;20076;-85
2022/09/21 08:56:14;;;;;;;4.72;2.10;;;;;;;22.46;41.73;102614.44;5014340;28;20030;-84
2022/09/21 08:58:40;;;;;;;7.07;2.20;;;;;;;22.34;41.17;102612.75;5013828;28;20034;-85
2022/09/21 09:01:09;;;;;;;7.00;2.45;;;;;;;22.25;40.62;102602.97;5013776;28;20030;-84
2022/09/21 09:04:03;;;;;;;5.47;2.10;;;;;;;22.49;41.38;102609.03;4996655;28;20037;-84
2022/09/21 09:07:03;;;;;;;6.38;1.95;;;;;;;22.88;40.39;102613.06;4996083;28;20041;-84
2022/09/21 09:09:43;;;;;;;5.53;2.03;;;;;;;23.27;39.88;102610.78;5013711;28;20113;-84
2022/09/21 09:12:23;;;;;;;6.03;2.08;;;;;;;23.15;38.67;102614.53;4996765;28;20096;-84
2022/09/21 09:15:14;;;;;;;5.70;2.00;;;;;;;23.08;37.29;102620.91;5013911;28;20037;-84
2022/09/21 09:17:45;;;;;;;6.63;1.90;;;;;;;23.37;37.12;102617.81;4973540;28;20466;-84
2022/09/21 09:20:19;;;;;;;3.92;1.92;;;;;;;23.70;38.70;102616.44;5013450;28;20470;-84
2022/09/21 09:22:52;;;;;;;8.77;2.20;;;;;;;23.94;37.60;102619.69;5013869;28;20030;-84
2022/09/21 09:25:21;;;;;;;5.38;1.92;;;;;;;24.04;35.27;102623.13;4995935;28;20470;-85
2022/09/21 09:27:52;;;;;;;5.75;2.10;;;;;;;24.28;35.73;102614.56;5013766;28;20413;-84
2022/09/21 09:30:25;;;;;;;5.95;2.00;;;;;;;24.45;36.67;102614.28;5013846;28;20484;-85
2022/09/21 09:32:54;;;;;;;6.50;2.20;;;;;;;24.64;35.46;102610.31;4995885;28;20041;-84
2022/09/21 09:35:27;;;;;;;7.00;2.20;;;;;;;24.70;34.78;102614.69;5013341;28;20470;-85
2022/09/21 09:38:14;;;;;;;6.97;1.90;;;;;;;24.46;38.21;102614.28;5013903;28;20054;-84
2022/09/21 09:40:58;;;;;;;6.43;2.13;;;;;;;24.66;37.37;102621.09;5017351;28;20065;-84
2022/09/21 09:44:13;;;;;;;6.15;2.08;;;;;;;24.30;35.58;102614.53;5016993;28;20156;-84
2022/09/21 09:47:07;;;;;;;6.45;2.10;;;;;;;24.10;35.50;102604.09;4956367;29;20031;-85
2022/09/21 09:50:01;;;;;;;6.10;2.00;;;;;;;24.59;36.19;102619.44;4956644;29;20039;-85
2022/09/21 09:52:27;;;;;;;5.95;1.80;;;;;;;24.42;34.22;102615.25;4990250;28;20034;-85
2022/09/21 09:54:53;;;;;;;5.93;2.10;;;;;;;24.53;34.25;102615.03;4999057;28;20033;-85
2022/09/21 09:57:27;;;;;;;6.18;2.00;;;;;;;24.74;34.43;102621.81;5016985;28;20359;-85
2022/09/21 09:59:55;;;;;;;6.30;2.00;;;;;;;25.23;33.73;102610.91;5016721;28;20463;-85
2022/09/21 10:02:28;;;;;;;4.95;1.90;;;;;;;25.29;33.53;102612.56;5016356;28;20042;-85
2022/09/21 10:05:09;;;;;;;7.30;1.90;;;;;;;25.38;32.93;102615.06;5016518;28;20038;-85
2022/09/21 10:07:39;;;;;;;6.90;1.90;;;;;;;25.15;32.65;102620.13;4998818;28;20033;-85
2022/09/21 10:10:31;;;;;;;5.60;1.42;;;;;;;25.35;34.79;102609.75;5016410;28;20776;-85
2022/09/21 10:13:05;;;;;;;6.15;1.90;;;;;;;25.13;32.64;102612.00;5016720;28;20018;-85
2022/09/21 10:15:31;;;;;;;4.75;1.80;;;;;;;24.58;32.52;102614.94;4998952;28;20447;-85
2022/09/21 10:18:09;;;;;;;6.50;1.90;;;;;;;24.47;33.84;102616.03;5017185;28;20509;-85
2022/09/21 10:20:34;;;;;;;3.78;1.42;;;;;;;24.78;33.29;102610.03;4999003;28;20030;-85
2022/09/21 10:23:00;;;;;;;4.43;1.45;;;;;;;24.78;31.75;102609.13;4998512;28;20398;-84
2022/09/21 10:25:25;;;;;;;5.82;1.92;;;;;;;24.86;33.14;102605.34;4994946;28;20054;-85
2022/09/21 10:27:52;;;;;;;5.03;1.60;;;;;;;25.02;32.28;102610.44;4996484;28;20048;-85
2022/09/21 10:30:40;;;;;;;4.55;1.48;;;;;;;25.37;30.79;102607.00;4995430;28;20035;-85
2022/09/21 10:33:19;;;;;;;3.95;1.45;;;;;;;25.67;29.18;102598.13;4995871;28;20034;-85
2022/09/21 10:35:50;;;;;;;5.13;1.80;;;;;;;25.73;29.66;102594.38;4995337;28;20030;-86
2022/09/21 10:38:17;;;;;;;3.25;1.50;;;;;;;25.81;29.39;102591.50;4996361;28;20478;-86
2022/09/21 10:40:44;;;;;;;5.82;1.90;;;;;;;26.04;28.77;102593.63;4996321;28;20482;-86
2022/09/21 10:43:30;;;;;;;7.57;1.70;;;;;;;26.20;30.99;102586.88;4996612;28;20085;-85
2022/09/21 10:45:56;;;;;;;5.57;1.73;;;;;;;26.52;28.00;102590.56;4995274;28;20174;-85
2022/09/21 10:48:24;;;;;;;6.30;2.00;;;;;;;26.69;29.60;102580.13;4996156;28;20030;-85
2022/09/21 10:50:52;;;;;;;6.55;2.10;;;;;;;26.63;28.43;102581.16;4995167;28;20057;-85
2022/09/21 10:53:21;;;;;;;6.03;2.00;;;;;;;26.46;30.66;102578.06;5002539;28;20034;-85
2022/09/21 10:56:07;;;;;;;5.82;2.00;;;;;;;26.63;30.40;102588.41;5003706;28;20026;-84
2022/09/21 10:58:34;;;;;;;4.20;1.77;;;;;;;26.55;28.67;102583.25;4995173;28;20195;-85
2022/09/21 11:01:19;;;;;;;5.80;1.90;;;;;;;26.89;30.27;102576.81;4995705;28;20042;-85
2022/09/21 11:03:59;;;;;;;8.10;2.22;;;;;;;27.15;29.72;102584.19;4997159;28;20030;-85
2022/09/21 11:06:39;;;;;;;3.85;1.50;;;;;;;27.13;29.93;102586.06;5001453;28;20035;-85
2022/09/21 11:09:28;;;;;;;8.07;2.03;;;;;;;26.64;30.05;102582.97;4995504;28;20041;-86
2022/09/21 11:12:21;;;;;;;3.95;1.50;;;;;;;26.66;27.34;102578.38;4995507;28;20076;-86
2022/09/21 11:15:03;;;;;;;7.38;1.88;;;;;;;26.74;27.72;102580.88;4964802;28;20045;-84
2022/09/21 11:17:50;;;;;;;3.97;1.48;;;;;;;26.87;27.42;102575.97;4995951;28;20037;-83
2022/09/21 11:20:26;;;;;;;8.25;2.00;;;;;;;27.22;29.62;102585.78;4995372;28;20132;-84
2022/09/21 11:23:16;;;;;;;4.82;1.90;;;;;;;26.88;27.75;102578.63;4995309;28;20030;-83
2022/09/21 11:25:49;;;;;;;6.55;2.20;;;;;;;26.52;27.76;102582.44;4980146;28;20051;-83
2022/09/21 11:28:21;;;;;;;7.68;2.05;;;;;;;25.64;28.78;102581.94;4976602;28;20042;-84
2022/09/21 11:31:01;;;;;;;6.57;1.90;;;;;;;25.60;31.36;102584.78;4975987;28;20097;-84
2022/09/21 11:33:54;;;;;;;4.75;1.65;;;;;;;25.85;30.10;102579.69;4975600;28;20468;-83
2022/09/21 11:36:42;;;;;;;7.70;1.80;;;;;;;25.43;30.91;102577.06;4975806;28;20114;-84
2022/09/21 11:39:25;;;;;;;3.70;1.58;;;;;;;24.86;27.58;102580.13;4975720;28;20475;-83
2022/09/21 11:42:09;;;;;;;2.70;1.35;;;;;;;24.86;30.27;102562.09;4975424;28;20396;-83
2022/09/21 11:44:41;;;;;;;3.53;1.17;;;;;;;24.68;28.29;102573.28;4975728;28;20475;-83
2022/09/21 11:47:21;;;;;;;4.03;1.33;;;;;;;24.71;29.43;102575.91;4975445;28;20058;-83
2022/09/21 11:50:05;;;;;;;4.80;1.58;;;;;;;24.68;29.92;102576.00;4974302;28;20038;-83